createdAt,value
2022-09-26T00:00:50.987Z,97672.00
2022-09-26T00:02:54.043Z,97680.56
2022-09-26T00:04:57.006Z,97673.63
2022-09-26T00:07:00.156Z,97669.25
2022-09-26T00:09:03.185Z,97666.88
2022-09-26T00:11:08.108Z,97674.03
2022-09-26T00:13:11.107Z,97681.06
2022-09-26T00:15:14.081Z,97675.00
2022-09-26T00:17:18.528Z,97675.81
2022-09-26T00:19:22.072Z,97674.19
2022-09-26T00:21:25.936Z,97672.50
2022-09-26T00:23:28.858Z,97675.13
2022-09-26T00:25:31.822Z,97670.84
2022-09-26T00:27:34.817Z,97669.88
2022-09-26T00:29:37.811Z,97667.13
2022-09-26T00:31:44.941Z,97666.31
2022-09-26T00:33:49.395Z,97660.09
2022-09-26T00:35:52.568Z,97660.22
2022-09-26T00:37:55.743Z,97660.50
2022-09-26T00:39:59.425Z,97660.63
2022-09-26T00:42:02.380Z,97659.00
2022-09-26T00:44:34.992Z,97658.00
2022-09-26T00:46:39.451Z,97657.31
2022-09-26T00:48:43.165Z,97657.19
2022-09-26T00:50:48.438Z,97659.94
2022-09-26T00:52:56.163Z,97658.13
2022-09-26T00:55:01.282Z,97655.38
2022-09-26T00:57:08.946Z,97654.56
2022-09-26T00:59:17.039Z,97664.09
2022-09-26T01:01:20.443Z,97660.75
2022-09-26T01:03:24.327Z,97652.88
2022-09-26T01:05:27.322Z,97644.06
2022-09-26T01:07:31.698Z,97646.84
2022-09-26T01:09:35.679Z,97646.16
2022-09-26T01:11:39.694Z,97641.84
2022-09-26T01:13:44.134Z,97643.66
2022-09-26T01:15:47.105Z,97642.00
2022-09-26T01:17:50.799Z,97644.63
2022-09-26T01:20:03.615Z,97637.56
2022-09-26T01:22:21.093Z,97642.94
2022-09-26T01:24:48.729Z,97643.09
2022-09-26T01:27:19.903Z,97644.06
2022-09-26T01:30:02.770Z,97643.34
2022-09-26T01:32:34.520Z,97641.00
2022-09-26T01:34:42.128Z,97645.44
2022-09-26T01:37:02.707Z,97645.56
2022-09-26T01:39:16.019Z,97648.31
2022-09-26T01:41:34.031Z,97651.75
2022-09-26T01:43:42.992Z,97649.00
2022-09-26T01:45:51.521Z,97652.59
2022-09-26T01:47:59.673Z,97648.19
2022-09-26T01:50:06.408Z,97648.19
2022-09-26T01:52:12.630Z,97650.66
2022-09-26T01:54:19.306Z,97649.84
2022-09-26T01:56:24.222Z,97648.19
2022-09-26T01:58:30.165Z,97641.28
2022-09-26T02:00:34.642Z,97642.25
2022-09-26T02:02:40.271Z,97640.44
2022-09-26T02:04:46.926Z,97646.50
2022-09-26T02:06:52.111Z,97639.63
2022-09-26T02:08:59.154Z,97646.66
2022-09-26T02:11:06.694Z,97644.88
2022-09-26T02:13:12.661Z,97638.09
2022-09-26T02:15:19.024Z,97637.41
2022-09-26T02:17:26.303Z,97636.56
2022-09-26T02:19:30.490Z,97637.81
2022-09-26T02:21:35.449Z,97631.03
2022-09-26T02:23:38.520Z,97637.41
2022-09-26T02:25:41.577Z,97628.28
2022-09-26T02:27:44.605Z,97627.59
2022-09-26T02:29:47.662Z,97628.41
2022-09-26T02:31:56.700Z,97626.06
2022-09-26T02:34:00.329Z,97619.16
2022-09-26T02:36:05.183Z,97618.19
2022-09-26T02:38:09.984Z,97625.09
2022-09-26T02:40:26.681Z,97614.75
2022-09-26T02:42:36.566Z,97624.38
2022-09-26T02:45:02.086Z,97617.50
2022-09-26T02:47:25.213Z,97608.25
2022-09-26T02:49:45.070Z,97614.56
2022-09-26T02:52:07.338Z,97607.13
2022-09-26T02:54:17.188Z,97610.00
2022-09-26T02:56:36.192Z,97608.63
2022-09-26T02:58:47.472Z,97602.69
2022-09-26T03:00:59.188Z,97603.50
2022-09-26T03:03:07.898Z,97598.66
2022-09-26T03:05:12.796Z,97597.41
2022-09-26T03:07:19.800Z,97590.63
2022-09-26T03:09:25.571Z,97586.50
2022-09-26T03:11:29.794Z,97585.78
2022-09-26T03:13:35.770Z,97584.97
2022-09-26T03:15:40.641Z,97577.38
2022-09-26T03:17:46.007Z,97574.06
2022-09-26T03:19:54.434Z,97583.81
2022-09-26T03:21:58.007Z,97574.47
2022-09-26T03:24:01.869Z,97574.47
2022-09-26T03:26:12.466Z,97565.75
2022-09-26T03:28:24.072Z,97564.94
2022-09-26T03:30:27.117Z,97562.44
2022-09-26T03:32:50.408Z,97568.50
2022-09-26T03:34:53.368Z,97559.97
2022-09-26T03:36:56.417Z,97551.44
2022-09-26T03:39:00.157Z,97561.91
2022-09-26T03:41:27.004Z,97550.84
2022-09-26T03:43:43.685Z,97551.97
2022-09-26T03:45:47.244Z,97548.53
2022-09-26T03:47:57.312Z,97550.28
2022-09-26T03:50:01.236Z,97544.22
2022-09-26T03:52:04.603Z,97544.22
2022-09-26T03:54:07.624Z,97545.16
2022-09-26T03:56:12.150Z,97545.06
2022-09-26T03:58:16.511Z,97540.91
2022-09-26T04:00:19.785Z,97537.69
2022-09-26T04:02:23.402Z,97532.72
2022-09-26T04:04:40.138Z,97528.22
2022-09-26T04:06:44.748Z,97526.41
2022-09-26T04:08:49.288Z,97530.81
2022-09-26T04:10:52.399Z,97530.81
2022-09-26T04:12:56.908Z,97524.75
2022-09-26T04:15:02.521Z,97520.22
2022-09-26T04:17:08.255Z,97519.63
2022-09-26T04:19:19.144Z,97512.06
2022-09-26T04:21:22.150Z,97516.84
2022-09-26T04:23:25.307Z,97507.47
2022-09-26T04:25:29.260Z,97507.47
2022-09-26T04:27:32.246Z,97507.47
2022-09-26T04:29:35.204Z,97507.75
2022-09-26T04:32:08.967Z,97500.03
2022-09-26T04:34:27.321Z,97498.50
2022-09-26T04:36:30.975Z,97490.09
2022-09-26T04:38:34.097Z,97495.56
2022-09-26T04:40:42.574Z,97496.69
2022-09-26T04:42:46.239Z,97486.63
2022-09-26T04:44:49.537Z,97487.94
2022-09-26T04:46:52.422Z,97490.28
2022-09-26T04:49:01.163Z,97488.16
2022-09-26T04:51:07.108Z,97482.25
2022-09-26T04:53:10.081Z,97487.47
2022-09-26T04:55:23.716Z,97477.03
2022-09-26T04:57:27.651Z,97477.72
2022-09-26T04:59:30.721Z,97480.31
2022-09-26T05:01:38.658Z,97466.56
2022-09-26T05:03:50.031Z,97467.66
2022-09-26T05:05:54.982Z,97462.94
2022-09-26T05:07:58.223Z,97471.84
2022-09-26T05:10:01.434Z,97462.06
2022-09-26T05:12:06.116Z,97465.06
2022-09-26T05:14:10.754Z,97463.66
2022-09-26T05:16:15.130Z,97457.63
2022-09-26T05:18:19.051Z,97460.34
2022-09-26T05:20:24.658Z,97458.94
2022-09-26T05:22:37.585Z,97461.69
2022-09-26T05:24:58.072Z,97457.53
2022-09-26T05:27:01.305Z,97452.56
2022-09-26T05:29:08.580Z,97455.69
2022-09-26T05:31:33.881Z,97444.94
2022-09-26T05:33:38.497Z,97453.13
2022-09-26T05:35:42.434Z,97443.31
2022-09-26T05:37:46.821Z,97436.72
2022-09-26T05:40:07.442Z,97442.19
2022-09-26T05:42:15.337Z,97437.22
2022-09-26T05:44:20.034Z,97441.59
2022-09-26T05:46:23.166Z,97439.97
2022-09-26T05:48:29.153Z,97442.44
2022-09-26T05:50:32.635Z,97441.94
2022-09-26T05:52:35.749Z,97450.09
2022-09-26T05:54:40.250Z,97442.69
2022-09-26T05:57:03.198Z,97445.06
2022-09-26T05:59:26.603Z,97439.56
2022-09-26T06:02:01.476Z,97438.50
2022-09-26T06:04:24.411Z,97439.31
2022-09-26T06:06:48.733Z,97434.91
2022-09-26T06:08:53.364Z,97435.75
2022-09-26T06:11:06.055Z,97436.72
2022-09-26T06:13:09.230Z,97437.66
2022-09-26T06:15:19.296Z,97439.06
2022-09-26T06:17:22.248Z,97439.63
2022-09-26T06:19:25.329Z,97441.84
2022-09-26T06:21:28.707Z,97443.00
2022-09-26T06:23:38.661Z,97436.44
2022-09-26T06:25:43.485Z,97427.97
2022-09-26T06:27:48.790Z,97433.22
2022-09-26T06:29:51.826Z,97433.13
2022-09-26T06:31:54.899Z,97434.69
2022-09-26T06:34:18.230Z,97442.44
2022-09-26T06:36:25.181Z,97442.88
2022-09-26T06:38:29.314Z,97440.69
2022-09-26T06:40:33.655Z,97441.25
2022-09-26T06:42:37.918Z,97438.50
2022-09-26T06:45:09.993Z,97431.22
2022-09-26T06:47:32.221Z,97432.75
2022-09-26T06:49:54.732Z,97434.00
2022-09-26T06:52:02.927Z,97428.63
2022-09-26T06:54:06.013Z,97434.19
2022-09-26T06:56:09.020Z,97426.63
2022-09-26T06:58:11.997Z,97427.88
2022-09-26T07:00:30.541Z,97432.16
2022-09-26T07:02:50.971Z,97423.91
2022-09-26T07:05:02.746Z,97434.66
2022-09-26T07:07:09.368Z,97429.13
2022-09-26T07:09:12.903Z,97427.75
2022-09-26T07:12:02.789Z,97430.47
2022-09-26T07:14:02.117Z,97427.50
2022-09-26T07:16:07.513Z,97423.59
2022-09-26T07:18:28.237Z,97424.44
2022-09-26T07:20:56.627Z,97423.34
2022-09-26T07:23:23.882Z,97431.22
2022-09-26T07:25:26.907Z,97427.06
2022-09-26T07:27:30.316Z,97417.28
2022-09-26T07:29:34.596Z,97428.09
2022-09-26T07:31:39.269Z,97425.03
2022-09-26T07:33:42.326Z,97431.66
2022-09-26T07:35:48.845Z,97426.25
2022-09-26T07:37:52.778Z,97422.34
2022-09-26T07:40:00.717Z,97424.97
2022-09-26T07:42:05.951Z,97413.38
2022-09-26T07:46:49.849Z,97422.22
2022-09-26T07:49:12.599Z,97423.97
2022-09-26T07:51:33.801Z,97419.66
2022-09-26T07:53:41.375Z,97418.53
2022-09-26T07:56:11.476Z,97422.44
2022-09-26T07:58:35.937Z,97428.09
2022-09-26T08:00:46.314Z,97417.53
2022-09-26T08:03:04.871Z,97419.53
2022-09-26T08:05:12.937Z,97418.53
2022-09-26T08:07:16.177Z,97415.22
2022-09-26T08:09:33.129Z,97411.53
2022-09-26T08:11:55.772Z,97408.97
2022-09-26T08:14:11.750Z,97406.00
2022-09-26T08:16:39.419Z,97400.88
2022-09-26T08:18:42.572Z,97402.06
2022-09-26T08:20:48.295Z,97402.22
2022-09-26T08:22:51.355Z,97397.59
2022-09-26T08:24:55.359Z,97391.69
2022-09-26T08:27:25.859Z,97391.00
2022-09-26T08:29:30.935Z,97390.03
2022-09-26T08:31:35.099Z,97387.06
2022-09-26T08:33:38.811Z,97388.72
2022-09-26T08:35:42.146Z,97388.41
2022-09-26T08:37:53.386Z,97388.22
2022-09-26T08:40:14.970Z,97390.06
2022-09-26T08:43:04.496Z,97382.97
2022-09-26T08:45:55.634Z,97377.91
2022-09-26T08:48:06.807Z,97374.84
2022-09-26T08:50:20.447Z,97374.84
2022-09-26T08:52:30.603Z,97371.28
2022-09-26T08:54:37.326Z,97372.44
2022-09-26T08:56:42.995Z,97372.13
2022-09-26T08:58:51.940Z,97366.84
2022-09-26T09:00:58.962Z,97370.47
2022-09-26T09:03:06.806Z,97369.63
2022-09-26T09:05:15.903Z,97371.13
2022-09-26T09:07:23.481Z,97362.59
2022-09-26T09:09:26.771Z,97360.97
2022-09-26T09:12:08.493Z,97353.31
2022-09-26T09:14:23.485Z,97360.91
2022-09-26T09:16:51.426Z,97355.03
2022-09-26T09:19:09.163Z,97352.25
2022-09-26T09:21:44.156Z,97360.56
2022-09-26T09:24:12.828Z,97356.78
2022-09-26T09:29:04.605Z,97354.13
2022-09-26T09:31:10.554Z,97343.75
2022-09-26T09:33:29.163Z,97343.56
2022-09-26T09:35:58.636Z,97345.00
2022-09-26T09:38:21.753Z,97347.31
2022-09-26T09:40:39.517Z,97345.00
2022-09-26T09:42:44.893Z,97340.72
2022-09-26T09:44:53.651Z,97334.56
2022-09-26T09:46:56.691Z,97336.50
2022-09-26T09:49:21.151Z,97336.84
2022-09-26T09:51:38.365Z,97329.25
2022-09-26T09:53:57.841Z,97328.19
2022-09-26T09:56:08.267Z,97323.75
2022-09-26T09:58:23.115Z,97315.53
2022-09-26T10:00:28.890Z,97309.91
2022-09-26T10:02:48.822Z,97298.72
2022-09-26T10:05:02.605Z,97305.63
2022-09-26T10:07:05.816Z,97294.44
2022-09-26T10:09:38.183Z,97303.63
2022-09-26T10:12:20.269Z,97300.78
2022-09-26T10:14:46.089Z,97299.31
2022-09-26T10:17:18.509Z,97290.47
2022-09-26T10:19:36.334Z,97282.44
2022-09-26T10:21:41.585Z,97282.63
2022-09-26T10:23:48.881Z,97275.22
2022-09-26T10:26:12.169Z,97277.28
2022-09-26T10:28:25.599Z,97276.31
2022-09-26T10:30:33.050Z,97266.91
2022-09-26T10:32:48.570Z,97268.38
2022-09-26T10:35:19.944Z,97262.34
2022-09-26T10:37:25.465Z,97260.69
2022-09-26T10:40:11.095Z,97249.81
2022-09-26T10:42:20.091Z,97256.56
2022-09-26T10:44:27.034Z,97249.00
2022-09-26T10:46:56.399Z,97243.41
2022-09-26T10:49:17.026Z,97233.69
2022-09-26T10:51:43.162Z,97234.81
2022-09-26T10:53:52.043Z,97246.84
2022-09-26T10:55:57.693Z,97245.03
2022-09-26T10:58:04.258Z,97232.34
2022-09-26T11:00:09.074Z,97235.47
2022-09-26T11:02:19.950Z,97221.81
2022-09-26T11:04:44.306Z,97230.22
2022-09-26T11:07:24.774Z,97209.97
2022-09-26T11:09:38.274Z,97217.38
2022-09-26T11:12:23.900Z,97215.53
2022-09-26T11:14:29.753Z,97209.78
2022-09-26T11:16:41.737Z,97205.31
2022-09-26T11:18:50.848Z,97200.69
2022-09-26T11:20:58.454Z,97198.03
2022-09-26T11:23:08.151Z,97191.31
2022-09-26T11:25:15.428Z,97197.75
2022-09-26T11:27:27.175Z,97186.72
2022-09-26T11:29:39.408Z,97197.09
2022-09-26T11:31:48.536Z,97182.75
2022-09-26T11:34:28.836Z,97180.00
2022-09-26T11:37:12.229Z,97182.13
2022-09-26T11:39:26.458Z,97161.72
2022-09-26T11:41:40.757Z,97156.28
2022-09-26T11:43:53.139Z,97162.53
2022-09-26T11:46:31.464Z,97165.03
2022-09-26T11:49:05.159Z,97150.03
2022-09-26T11:51:40.598Z,97145.75
2022-09-26T11:54:00.859Z,97142.63
2022-09-26T11:56:15.980Z,97146.25
2022-09-26T11:58:23.902Z,97152.16
2022-09-26T12:00:33.078Z,97151.47
2022-09-26T12:02:47.371Z,97136.50
2022-09-26T12:05:02.060Z,97123.50
2022-09-26T12:07:11.519Z,97127.78
2022-09-26T12:09:27.708Z,97127.31
2022-09-26T12:11:37.253Z,97122.81
2022-09-26T12:13:48.316Z,97113.94
2022-09-26T12:15:56.165Z,97109.81
2022-09-26T12:18:13.184Z,97105.50
2022-09-26T12:20:25.446Z,97097.38
2022-09-26T12:22:33.308Z,97088.63
2022-09-26T12:24:45.425Z,97091.28
2022-09-26T12:26:55.147Z,97090.72
2022-09-26T12:29:09.188Z,97099.66
2022-09-26T12:31:19.665Z,97085.84
2022-09-26T12:33:35.856Z,97094.78
2022-09-26T12:35:48.953Z,97113.31
2022-09-26T12:38:28.311Z,97107.91
2022-09-26T12:40:48.493Z,97110.06
2022-09-26T12:43:31.590Z,97105.63
2022-09-26T12:45:53.199Z,97094.53
2022-09-26T12:48:12.397Z,97078.38
2022-09-26T12:50:18.474Z,97080.84
2022-09-26T12:52:33.472Z,97079.63
2022-09-26T12:54:55.922Z,97081.25
2022-09-26T12:57:06.855Z,97070.72
2022-09-26T12:59:19.528Z,97071.44
2022-09-26T13:01:36.007Z,97073.84
2022-09-26T13:03:55.644Z,97065.91
2022-09-26T13:06:29.675Z,97060.41
2022-09-26T13:08:36.837Z,97060.63
2022-09-26T13:10:48.454Z,97054.41
2022-09-26T13:13:10.128Z,97053.44
2022-09-26T13:15:23.425Z,97046.53
2022-09-26T13:17:30.060Z,97040.94
2022-09-26T13:19:35.582Z,97036.34
2022-09-26T13:21:44.768Z,97029.44
2022-09-26T13:23:52.556Z,97031.28
2022-09-26T13:25:59.168Z,97024.19
2022-09-26T13:28:07.088Z,97018.25
2022-09-26T13:30:17.515Z,97017.41
2022-09-26T13:32:25.440Z,97010.84
2022-09-26T13:34:31.249Z,97018.75
2022-09-26T13:36:35.294Z,97015.31
2022-09-26T13:38:46.122Z,97023.19
2022-09-26T13:40:54.802Z,97016.28
2022-09-26T13:43:08.630Z,97009.69
2022-09-26T13:45:22.590Z,97019.06
2022-09-26T13:47:35.738Z,97017.28
2022-09-26T13:49:50.960Z,97002.13
2022-09-26T13:52:02.015Z,97004.41
2022-09-26T13:54:13.156Z,96999.97
2022-09-26T13:56:44.034Z,96999.78
2022-09-26T13:58:48.977Z,96993.56
2022-09-26T14:00:55.112Z,96995.03
2022-09-26T14:03:35.460Z,96993.41
2022-09-26T14:05:49.307Z,96990.28
2022-09-26T14:08:19.140Z,96988.97
2022-09-26T14:10:36.269Z,96991.75
2022-09-26T14:13:08.372Z,96982.69
2022-09-26T14:15:24.447Z,96986.66
2022-09-26T14:18:03.371Z,96976.47
2022-09-26T14:20:06.756Z,96973.34
2022-09-26T14:22:34.657Z,96974.19
2022-09-26T14:24:39.543Z,96964.97
2022-09-26T14:26:43.281Z,96968.28
2022-09-26T14:28:54.329Z,96966.31
2022-09-26T14:31:19.619Z,96967.13
2022-09-26T14:33:24.524Z,96966.13
2022-09-26T14:35:30.115Z,96954.94
2022-09-26T14:37:35.115Z,96945.41
2022-09-26T14:39:41.655Z,96949.72
2022-09-26T14:41:44.712Z,96940.81
2022-09-26T14:43:48.707Z,96944.63
2022-09-26T14:45:53.701Z,96944.97
2022-09-26T14:48:15.277Z,96936.38
2022-09-26T14:50:20.765Z,96932.75
2022-09-26T14:52:25.273Z,96934.59
2022-09-26T14:54:31.968Z,96939.00
2022-09-26T14:56:44.795Z,96937.69
2022-09-26T14:58:50.831Z,96941.13
2022-09-26T15:00:55.874Z,96942.31
2022-09-26T15:03:01.285Z,96933.75
2022-09-26T15:05:14.080Z,96941.34
2022-09-26T15:07:21.282Z,96934.91
2022-09-26T15:09:29.802Z,96929.66
2022-09-26T15:11:39.961Z,96935.06
2022-09-26T15:13:46.523Z,96935.59
2022-09-26T15:15:58.984Z,96937.72
2022-09-26T15:18:08.200Z,96932.13
2022-09-26T15:20:16.874Z,96934.25
2022-09-26T15:22:23.710Z,96927.03
2022-09-26T15:24:29.034Z,96930.81
2022-09-26T15:26:34.726Z,96926.19
2022-09-26T15:28:38.961Z,96927.34
2022-09-26T15:30:42.755Z,96921.28
2022-09-26T15:32:49.158Z,96922.28
2022-09-26T15:34:53.087Z,96916.69
2022-09-26T15:36:58.496Z,96912.72
2022-09-26T15:39:02.591Z,96909.94
2022-09-26T15:41:06.042Z,96910.13
2022-09-26T15:43:20.385Z,96908.81
2022-09-26T15:45:30.201Z,96901.56
2022-09-26T15:47:41.655Z,96904.50
2022-09-26T15:49:44.792Z,96896.13
2022-09-26T15:51:51.004Z,96907.13
2022-09-26T15:53:58.900Z,96900.75
2022-09-26T15:56:04.184Z,96902.53
2022-09-26T15:58:08.092Z,96890.91
2022-09-26T16:00:15.107Z,96878.09
2022-09-26T16:02:23.832Z,96884.50
2022-09-26T16:04:28.146Z,96881.34
2022-09-26T16:06:34.168Z,96875.75
2022-09-26T16:08:41.538Z,96876.59
2022-09-26T16:10:53.996Z,96880.84
2022-09-26T16:12:58.277Z,96879.03
2022-09-26T16:15:04.112Z,96878.84
2022-09-26T16:17:21.446Z,96875.91
2022-09-26T16:19:31.045Z,96881.78
2022-09-26T16:21:36.582Z,96880.78
2022-09-26T16:23:46.344Z,96867.97
2022-09-26T16:25:54.916Z,96876.00
2022-09-26T16:28:04.094Z,96865.50
2022-09-26T16:30:40.472Z,96860.09
2022-09-26T16:32:43.878Z,96865.19
2022-09-26T16:34:47.049Z,96857.47
2022-09-26T16:36:51.022Z,96864.97
2022-09-26T16:38:56.661Z,96862.88
2022-09-26T16:41:08.780Z,96862.34
2022-09-26T16:43:18.891Z,96862.34
2022-09-26T16:45:22.676Z,96863.66
2022-09-26T16:47:42.889Z,96857.88
2022-09-26T16:49:47.395Z,96847.22
2022-09-26T16:52:11.741Z,96844.66
2022-09-26T16:54:20.756Z,96849.75
2022-09-26T16:56:25.699Z,96845.59
2022-09-26T16:58:28.914Z,96849.84
2022-09-26T17:00:52.565Z,96854.47
2022-09-26T17:02:56.020Z,96851.03
2022-09-26T17:04:59.279Z,96848.25
2022-09-26T17:07:09.465Z,96845.63
2022-09-26T17:09:17.600Z,96847.44
2022-09-26T17:11:20.964Z,96843.66
2022-09-26T17:13:27.047Z,96843.47
2022-09-26T17:15:30.786Z,96843.66
2022-09-26T17:17:35.047Z,96835.78
2022-09-26T17:19:40.120Z,96834.97
2022-09-26T17:21:44.017Z,96831.38
2022-09-26T17:23:48.854Z,96825.28
2022-09-26T17:25:57.465Z,96823.31
2022-09-26T17:28:01.690Z,96828.22
2022-09-26T17:30:11.720Z,96826.13
2022-09-26T17:32:17.201Z,96826.59
2022-09-26T17:34:21.054Z,96823.81
2022-09-26T17:36:25.708Z,96823.97
2022-09-26T17:38:28.910Z,96823.16
2022-09-26T17:40:33.618Z,96817.91
2022-09-26T17:42:36.785Z,96815.94
2022-09-26T17:44:41.689Z,96815.94
2022-09-26T17:46:48.882Z,96813.16
2022-09-26T17:48:52.134Z,96807.75
2022-09-26T17:50:55.780Z,96811.00
2022-09-26T17:53:00.037Z,96797.56
2022-09-26T17:55:05.863Z,96789.19
2022-09-26T17:57:11.731Z,96784.47
2022-09-26T17:59:21.960Z,96784.28
2022-09-26T18:01:27.054Z,96777.06
2022-09-26T18:03:34.182Z,96775.09
2022-09-26T18:05:39.021Z,96763.59
2022-09-26T18:07:43.375Z,96774.75
2022-09-26T18:09:46.502Z,96774.75
2022-09-26T18:11:55.724Z,96768.53
2022-09-26T18:13:59.337Z,96762.47
2022-09-26T18:16:03.231Z,96757.88
2022-09-26T18:18:12.222Z,96763.63
2022-09-26T18:20:17.276Z,96748.03
2022-09-26T18:22:22.861Z,96753.28
2022-09-26T18:24:29.096Z,96757.72
2022-09-26T18:26:33.808Z,96745.56
2022-09-26T18:28:38.873Z,96744.59
2022-09-26T18:30:44.097Z,96739.97
2022-09-26T18:32:50.843Z,96736.38
2022-09-26T18:34:54.141Z,96737.03
2022-09-26T18:37:00.248Z,96743.25
2022-09-26T18:39:04.995Z,96718.97
2022-09-26T18:41:08.207Z,96722.41
2022-09-26T18:43:12.744Z,96716.97
2022-09-26T18:45:19.918Z,96726.69
2022-09-26T18:47:23.161Z,96727.50
2022-09-26T18:49:27.168Z,96718.97
2022-09-26T18:51:30.499Z,96712.09
2022-09-26T18:53:37.473Z,96715.69
2022-09-26T18:55:58.135Z,96712.09
2022-09-26T18:58:18.815Z,96706.84
2022-09-26T19:00:22.149Z,96705.03
2022-09-26T19:02:27.534Z,96703.38
2022-09-26T19:04:31.604Z,96706.47
2022-09-26T19:06:37.177Z,96705.00
2022-09-26T19:08:43.341Z,96702.56
2022-09-26T19:10:46.600Z,96701.38
2022-09-26T19:12:49.760Z,96700.09
2022-09-26T19:14:52.839Z,96690.41
2022-09-26T19:16:56.632Z,96696.47
2022-09-26T19:18:59.755Z,96693.84
2022-09-26T19:21:04.317Z,96693.19
2022-09-26T19:23:07.439Z,96695.00
2022-09-26T19:25:12.495Z,96690.91
2022-09-26T19:27:18.418Z,96688.25
2022-09-26T19:29:28.199Z,96681.53
2022-09-26T19:31:31.523Z,96683.00
2022-09-26T19:33:34.668Z,96675.31
2022-09-26T19:35:40.213Z,96670.84
2022-09-26T19:37:43.400Z,96673.00
2022-09-26T19:39:46.586Z,96679.88
2022-09-26T19:41:51.354Z,96673.66
2022-09-26T19:43:54.579Z,96671.03
2022-09-26T19:45:58.405Z,96675.28
2022-09-26T19:48:02.737Z,96675.13
2022-09-26T19:50:08.229Z,96676.75
2022-09-26T19:52:15.022Z,96673.97
2022-09-26T19:54:19.698Z,96680.91
2022-09-26T19:56:23.384Z,96669.41
2022-09-26T19:58:28.948Z,96670.41
2022-09-26T20:00:39.685Z,96667.91
2022-09-26T20:02:43.630Z,96666.44
2022-09-26T20:04:47.551Z,96668.06
2022-09-26T20:06:50.903Z,96664.78
2022-09-26T20:09:01.198Z,96667.75
2022-09-26T20:11:05.091Z,96663.00
2022-09-26T20:13:08.449Z,96664.16
2022-09-26T20:15:14.091Z,96666.78
2022-09-26T20:17:23.609Z,96649.41
2022-09-26T20:19:33.275Z,96646.78
2022-09-26T20:21:36.564Z,96645.13
2022-09-26T20:23:47.133Z,96645.28
2022-09-26T20:25:51.855Z,96634.94
2022-09-26T20:27:55.102Z,96637.75
2022-09-26T20:30:15.708Z,96632.81
2022-09-26T20:32:20.725Z,96624.81
2022-09-26T20:34:23.813Z,96621.03
2022-09-26T20:36:29.069Z,96619.06
2022-09-26T20:38:35.708Z,96609.72
2022-09-26T20:40:38.892Z,96604.78
2022-09-26T20:42:45.262Z,96607.75
2022-09-26T20:44:49.036Z,96604.97
2022-09-26T20:46:53.756Z,96601.69
2022-09-26T20:48:58.483Z,96604.63
2022-09-26T20:51:02.156Z,96606.28
2022-09-26T20:53:05.486Z,96601.53
2022-09-26T20:55:15.122Z,96596.94
2022-09-26T20:57:19.626Z,96594.66
2022-09-26T20:59:23.199Z,96598.59
2022-09-26T21:01:28.177Z,96602.53
2022-09-26T21:03:31.601Z,96591.69
2022-09-26T21:05:36.376Z,96601.88
2022-09-26T21:07:39.603Z,96603.84
2022-09-26T21:09:42.822Z,96605.44
2022-09-26T21:11:46.004Z,96590.34
2022-09-26T21:13:49.130Z,96602.13
2022-09-26T21:15:52.741Z,96597.03
2022-09-26T21:17:56.446Z,96591.78
2022-09-26T21:19:59.556Z,96586.69
2022-09-26T21:22:25.333Z,96583.84
2022-09-26T21:24:30.951Z,96576.25
2022-09-26T21:26:34.203Z,96579.34
2022-09-26T21:28:37.316Z,96575.56
2022-09-26T21:30:40.434Z,96567.38
2022-09-26T21:32:45.937Z,96567.06
2022-09-26T21:34:55.482Z,96557.09
2022-09-26T21:36:59.494Z,96570.19
2022-09-26T21:39:04.128Z,96555.13
2022-09-26T21:41:07.686Z,96565.97
2022-09-26T21:43:15.387Z,96554.50
2022-09-26T21:45:23.619Z,96554.97
2022-09-26T21:47:29.564Z,96559.06
2022-09-26T21:49:32.856Z,96555.09
2022-09-26T21:51:36.507Z,96558.03
2022-09-26T21:53:41.917Z,96558.03
2022-09-26T21:55:50.171Z,96562.13
2022-09-26T21:57:54.419Z,96563.41
2022-09-26T21:59:58.851Z,96554.53
2022-09-26T22:02:02.142Z,96554.50
2022-09-26T22:04:05.979Z,96553.00
2022-09-26T22:06:10.515Z,96549.06
2022-09-26T22:08:13.558Z,96545.69
2022-09-26T22:10:17.267Z,96544.63
2022-09-26T22:12:22.203Z,96539.00
2022-09-26T22:14:25.419Z,96535.31
2022-09-26T22:16:28.698Z,96527.41
2022-09-26T22:18:31.908Z,96520.53
2022-09-26T22:20:35.472Z,96518.69
2022-09-26T22:22:38.678Z,96524.44
2022-09-26T22:24:41.803Z,96520.53
2022-09-26T22:26:45.086Z,96523.63
2022-09-26T22:28:50.051Z,96522.78
2022-09-26T22:30:53.905Z,96524.06
2022-09-26T22:32:57.151Z,96517.56
2022-09-26T22:35:00.206Z,96525.09
2022-09-26T22:37:03.411Z,96528.38
2022-09-26T22:39:06.968Z,96522.41
2022-09-26T22:41:10.788Z,96520.56
2022-09-26T22:43:13.826Z,96513.03
2022-09-26T22:45:18.509Z,96511.19
2022-09-26T22:47:22.706Z,96504.84
2022-09-26T22:49:25.777Z,96502.69
2022-09-26T22:51:29.365Z,96502.69
2022-09-26T22:53:33.004Z,96493.34
2022-09-26T22:55:36.412Z,96489.41
2022-09-26T22:57:39.581Z,96479.47
2022-09-26T22:59:42.668Z,96478.34
2022-09-26T23:01:47.212Z,96478.06
2022-09-26T23:03:50.476Z,96473.78
2022-09-26T23:05:53.515Z,96471.84
2022-09-26T23:07:56.599Z,96470.41
2022-09-26T23:10:00.682Z,96462.94
2022-09-26T23:12:03.691Z,96465.75
2022-09-26T23:14:06.724Z,96472.47
2022-09-26T23:16:11.468Z,96469.53
2022-09-26T23:18:16.407Z,96465.59
2022-09-26T23:20:19.456Z,96467.53
2022-09-26T23:22:22.519Z,96465.59
2022-09-26T23:24:25.725Z,96459.56
2022-09-26T23:26:31.208Z,96454.94
2022-09-26T23:28:34.794Z,96446.75
2022-09-26T23:30:38.350Z,96442.50
2022-09-26T23:32:41.511Z,96438.91
2022-09-26T23:34:45.933Z,96428.63
2022-09-26T23:36:48.972Z,96425.84
2022-09-26T23:38:52.174Z,96428.81
2022-09-26T23:40:55.663Z,96420.16
2022-09-26T23:42:59.134Z,96414.63
2022-09-26T23:45:02.190Z,96413.63
2022-09-26T23:47:05.378Z,96407.13
2022-09-26T23:49:08.609Z,96406.50
2022-09-26T23:51:13.265Z,96412.75
2022-09-26T23:53:17.094Z,96400.03
2022-09-26T23:55:20.184Z,96395.63
2022-09-26T23:57:23.464Z,96383.88
2022-09-26T23:59:26.528Z,96393.06
